»·PEaware :: N815M C47-KOSH

N815M :: C47-KOSH

FLIGHT INFORMATION

Flight Status: Arrived
Operator: Privately registered:
United States
More flights under this callsign
Pilot: Robert C. (30425)
Aircraft: BEECH AIRCRAFT DEBONAIR BONANZA
(BE33)
More flights by this aircraft type
Origin: C47 Portage Mun
United States
Destination: KOSH Wittman Regl
United States
More flights between these airports :: More routes between these airports
Route:
File this flight plan on PilotEdge
Remarks:
Altitude:
(Current/Filed)
2,500ft
Speed:
(Current/Filed)
100kts
Departed: 16-Jul-21 10:03 AM
Arrived: 16-Jul-21 10:33 AM
Distance/Time
Traveled:
35nm/0:30
Distance/Time
To Go:
Arrived

Flight Plot

Page will automatically refresh every two minutes.

Flight plan parsing failed; only flown route is shown


Map Options




Map Legend


Flown Route
Filed Route
Departure Airport
Arrival Airport
Navaid (VOR, NDB)
Fix

Horizontal Profiles

Position Reports

Time Latitude Longitude Heading Altitude Ground
Speed
16-Jul-21 08:44 43.555948 -89.481534 188 822ft 0kts
16-Jul-21 08:50 43.555948 -89.481534 188 822ft 0kts
16-Jul-21 08:51 43.555948 -89.481534 188 822ft 0kts
16-Jul-21 08:52 43.555845 -89.481590 237 822ft 2kts
16-Jul-21 08:53 43.555859 -89.481796 194 822ft 0kts
16-Jul-21 08:54 43.555859 -89.481796 194 822ft 0kts
16-Jul-21 08:55 43.555859 -89.481796 194 822ft 0kts
16-Jul-21 08:56 43.555859 -89.481796 194 822ft 0kts
16-Jul-21 08:57 43.555859 -89.481796 194 822ft 0kts
16-Jul-21 08:58 43.555859 -89.481796 194 822ft 0kts
16-Jul-21 08:59 43.555859 -89.481796 194 822ft 0kts
16-Jul-21 09:00 43.555859 -89.481796 194 822ft 0kts
16-Jul-21 09:01 43.555859 -89.481796 194 822ft 0kts
16-Jul-21 09:02 43.555859 -89.481796 194 822ft 0kts
16-Jul-21 09:03 43.555859 -89.481796 194 822ft 0kts
16-Jul-21 09:04 43.555859 -89.481796 194 822ft 0kts
16-Jul-21 09:05 43.555859 -89.481796 194 822ft 0kts
16-Jul-21 09:06 43.555859 -89.481796 194 822ft 0kts
16-Jul-21 09:07 43.555859 -89.481796 194 822ft 0kts
16-Jul-21 09:08 43.555859 -89.481796 194 822ft 0kts
16-Jul-21 09:09 43.555859 -89.481796 194 822ft 0kts
16-Jul-21 09:10 43.555859 -89.481796 194 822ft 0kts
16-Jul-21 09:11 43.555859 -89.481796 194 822ft 0kts
16-Jul-21 09:12 43.555859 -89.481796 194 822ft 0kts
16-Jul-21 09:13 43.555859 -89.481796 194 822ft 0kts
16-Jul-21 09:14 43.555859 -89.481796 194 822ft 0kts
16-Jul-21 09:15 43.555859 -89.481796 194 822ft 0kts
16-Jul-21 09:16 43.555859 -89.481796 194 822ft 0kts
16-Jul-21 09:17 43.555859 -89.481796 194 822ft 0kts
16-Jul-21 09:18 43.555859 -89.481796 194 822ft 0kts
16-Jul-21 09:19 43.555859 -89.481796 194 822ft 0kts
16-Jul-21 09:20 43.555859 -89.481796 194 822ft 0kts
16-Jul-21 09:21 43.555859 -89.481796 194 822ft 0kts
16-Jul-21 09:22 43.555859 -89.481796 194 822ft 0kts
16-Jul-21 09:23 43.555859 -89.481796 194 822ft 0kts
16-Jul-21 09:24 43.555859 -89.481796 194 822ft 0kts
16-Jul-21 09:25 43.555859 -89.481796 194 822ft 0kts
16-Jul-21 09:26 43.555859 -89.481796 194 822ft 0kts
16-Jul-21 09:27 43.555859 -89.481796 194 822ft 0kts
16-Jul-21 09:28 43.555859 -89.481796 194 822ft 0kts
16-Jul-21 09:29 43.555859 -89.481796 194 822ft 0kts
16-Jul-21 09:30 43.555859 -89.481796 194 822ft 0kts
16-Jul-21 09:31 43.555859 -89.481796 194 822ft 0kts
16-Jul-21 09:32 43.555859 -89.481796 194 822ft 0kts
16-Jul-21 09:33 43.555859 -89.481796 194 822ft 0kts
16-Jul-21 09:34 43.555859 -89.481796 194 822ft 0kts
16-Jul-21 09:35 43.555859 -89.481796 194 822ft 0kts
16-Jul-21 09:36 43.555859 -89.481796 194 822ft 0kts
16-Jul-21 09:37 43.555859 -89.481796 194 822ft 0kts
16-Jul-21 09:38 43.555859 -89.481796 194 822ft 0kts
16-Jul-21 09:39 43.555859 -89.481796 194 822ft 0kts
16-Jul-21 09:40 43.555859 -89.481796 194 822ft 0kts
16-Jul-21 09:41 43.555859 -89.481796 194 822ft 0kts
16-Jul-21 09:42 43.555859 -89.481796 194 822ft 0kts
16-Jul-21 09:43 43.555859 -89.481796 194 822ft 0kts
16-Jul-21 09:44 43.555859 -89.481796 194 822ft 0kts
16-Jul-21 09:45 43.555859 -89.481796 194 822ft 0kts
16-Jul-21 09:48 43.555948 -89.481534 188 822ft 0kts
16-Jul-21 09:49 43.555948 -89.481534 188 822ft 0kts
16-Jul-21 09:50 43.555948 -89.481534 188 822ft 0kts
16-Jul-21 09:54 43.555948 -89.481534 188 822ft 0kts
16-Jul-21 09:55 43.555520 -89.482363 275 823ft 0kts
16-Jul-21 09:56 43.555520 -89.482363 275 823ft 0kts
16-Jul-21 09:57 43.555520 -89.482363 275 823ft 0kts
16-Jul-21 09:58 43.555520 -89.482363 275 823ft 0kts
16-Jul-21 09:59 43.555520 -89.482363 275 823ft 0kts
16-Jul-21 10:00 43.555520 -89.482363 275 823ft 0kts
16-Jul-21 10:01 43.555520 -89.482363 275 823ft 0kts
16-Jul-21 10:02 43.558181 -89.483045 359 821ft 64kts
16-Jul-21 10:03 43.583808 -89.484990 16 1406ft 96kts
16-Jul-21 10:04 43.597402 -89.452239 81 1803ft 115kts
16-Jul-21 10:05 43.602677 -89.407139 74 1800ft 121kts
16-Jul-21 10:06 43.617623 -89.365326 59 1818ft 133kts
16-Jul-21 10:07 43.639826 -89.315393 57 1955ft 159kts
16-Jul-21 10:08 43.663081 -89.264458 57 1796ft 153kts
16-Jul-21 10:09 43.685357 -89.216058 57 1799ft 146kts
16-Jul-21 10:10 43.705581 -89.172108 57 1789ft 116kts
16-Jul-21 10:11 43.723196 -89.134188 57 1806ft 128kts
16-Jul-21 10:12 43.743791 -89.090633 56 1801ft 138kts
16-Jul-21 10:13 43.764707 -89.045956 60 1785ft 128kts
16-Jul-21 10:15 43.779039 -89.012971 60 1802ft 95kts
16-Jul-21 10:16 43.791715 -88.980861 60 1799ft 95kts
16-Jul-21 10:17 43.804364 -88.948816 60 1799ft 93kts
16-Jul-21 10:18 43.816721 -88.917505 60 1799ft 92kts
16-Jul-21 10:19 43.828877 -88.886214 61 1799ft 91kts
16-Jul-21 10:20 43.840720 -88.855077 61 1799ft 91kts
16-Jul-21 10:21 43.853536 -88.824728 54 1800ft 91kts
16-Jul-21 10:22 43.868799 -88.796640 50 1799ft 91kts
16-Jul-21 10:23 43.884643 -88.769139 48 1800ft 91kts
16-Jul-21 10:24 43.902136 -88.743605 44 1799ft 91kts
16-Jul-21 10:25 43.920603 -88.719328 41 1800ft 91kts
16-Jul-21 10:26 43.940611 -88.697722 34 1796ft 89kts
16-Jul-21 10:27 43.951193 -88.668549 81 1799ft 88kts
16-Jul-21 10:28 43.952279 -88.633324 90 1800ft 93kts
16-Jul-21 10:29 43.951853 -88.597420 90 1799ft 93kts
16-Jul-21 10:30 43.951373 -88.561493 87 1800ft 93kts
16-Jul-21 10:31 43.969286 -88.543484 0 1608ft 89kts
16-Jul-21 10:32 43.978283 -88.556578 178 857ft 76kts
16-Jul-21 10:33 43.974103 -88.557406 6 812ft 18kts
16-Jul-21 10:33 43.978821 -88.557404 325 812ft 11kts
16-Jul-21 10:35 43.979719 -88.558230 353 812ft 0kts
16-Jul-21 10:36 43.979719 -88.558230 353 812ft 0kts
16-Jul-21 10:36 43.982630 -88.557996 356 812ft 16kts
16-Jul-21 10:38 43.987649 -88.556916 43 812ft 13kts
16-Jul-21 10:38 43.987911 -88.554354 167 812ft 9kts
16-Jul-21 10:39 43.971445 -88.553136 152 1012ft 90kts
16-Jul-21 10:40 43.948854 -88.533584 147 1303ft 104kts
16-Jul-21 10:41 43.920512 -88.508918 147 1310ft 140kts
16-Jul-21 10:42 43.892359 -88.531244 264 1624ft 154kts
16-Jul-21 10:43 43.887433 -88.590274 261 2235ft 154kts
16-Jul-21 10:44 43.870951 -88.645311 238 2620ft 161kts
16-Jul-21 10:45 43.847796 -88.698995 238 2782ft 165kts
16-Jul-21 10:46 43.824134 -88.753568 237 2489ft 147kts

Navigation Log

Ident Type
Flight plan parsing failed, navigation log unavailable